Time;durP1;ratioP1;P1;durP2;ratioP2;P2;SDS_P1;SDS_P2;PMS_P1;PMS_P2;Temp;Humidity;BMP_temperature;BMP_pressure;BME280_temperature;BME280_humidity;BME280_pressure;Samples;Min_cycle;Max_cycle;Signal;HPM_P1;HPM_P2
2023/06/14 00:00:52;;;;;;;4.03;1.23;;;18.80;79.60;;;;;;5046416;28;20131;-76
2023/06/14 00:03:21;;;;;;;4.75;1.33;;;18.70;79.70;;;;;;5069158;28;20048;-77
2023/06/14 00:05:48;;;;;;;2.47;1.02;;;18.00;79.50;;;;;;5075630;28;20119;-77
2023/06/14 00:08:14;;;;;;;4.40;1.25;;;18.40;79.70;;;;;;5069712;28;20110;-77
2023/06/14 00:10:41;;;;;;;3.30;1.30;;;18.70;80.00;;;;;;5081763;28;20071;-77
2023/06/14 00:13:08;;;;;;;5.70;1.23;;;18.30;79.90;;;;;;5055910;28;20044;-77
2023/06/14 00:15:34;;;;;;;4.38;1.27;;;18.30;80.10;;;;;;5039585;28;20080;-78
2023/06/14 00:18:03;;;;;;;4.03;1.25;;;18.20;80.30;;;;;;5041805;28;20486;-77
2023/06/14 00:20:33;;;;;;;5.10;1.02;;;18.30;80.50;;;;;;5064402;28;20028;-77
2023/06/14 00:23:00;;;;;;;4.63;1.23;;;18.10;80.60;;;;;;5066256;28;20045;-77
2023/06/14 00:25:26;;;;;;;4.47;1.20;;;18.00;80.80;;;;;;5079817;28;20045;-76
2023/06/14 00:27:52;;;;;;;3.97;1.25;;;18.10;81.00;;;;;;5053861;28;20487;-79
2023/06/14 00:30:18;;;;;;;8.25;1.27;;;18.00;81.10;;;;;;5084076;28;20050;-78
2023/06/14 00:32:44;;;;;;;3.50;1.10;;;18.90;82.30;;;;;;5084408;28;20032;-79
2023/06/14 00:35:10;;;;;;;1.30;1.02;;;19.20;82.30;;;;;;5068121;28;20495;-78
2023/06/14 00:37:36;;;;;;;4.18;1.13;;;18.60;82.00;;;;;;5094421;28;20063;-80
2023/06/14 00:40:04;;;;;;;6.30;1.50;;;18.00;82.00;;;;;;5075394;28;20041;-76
2023/06/14 00:42:29;;;;;;;3.00;1.25;;;18.00;82.10;;;;;;5061059;28;20035;-78
2023/06/14 00:44:55;;;;;;;1.75;0.98;;;17.90;82.20;;;;;;5056558;28;20895;-79
2023/06/14 00:47:21;;;;;;;5.00;1.08;;;18.20;82.80;;;;;;5075864;28;20460;-77
2023/06/14 00:49:49;;;;;;;4.75;1.33;;;17.90;82.80;;;;;;5059553;28;20093;-80
2023/06/14 00:52:16;;;;;;;6.03;1.13;;;17.80;82.80;;;;;;5071153;28;20569;-81
2023/06/14 00:54:42;;;;;;;4.57;0.80;;;17.70;83.10;;;;;;5048154;28;20076;-78
2023/06/14 00:57:09;;;;;;;4.00;1.00;;;17.70;83.40;;;;;;5065845;28;20461;-80
2023/06/14 00:59:40;;;;;;;4.97;0.90;;;17.70;83.70;;;;;;5079616;28;20045;-79
2023/06/14 01:02:06;;;;;;;3.47;1.23;;;17.60;84.10;;;;;;5073183;28;20510;-78
2023/06/14 01:04:31;;;;;;;7.72;1.20;;;18.50;84.60;;;;;;5070077;28;20498;-77
2023/06/14 01:07:13;;;;;;;2.90;0.95;;;17.50;84.40;;;;;;5060467;28;20041;-76
2023/06/14 01:09:57;;;;;;;1.52;0.98;;;17.50;84.60;;;;;;5064593;28;20092;-75
2023/06/14 01:12:31;;;;;;;2.03;0.75;;;17.60;85.00;;;;;;5054938;28;20048;-76
2023/06/14 01:14:59;;;;;;;1.38;1.00;;;17.50;85.00;;;;;;5065407;28;20044;-77
2023/06/14 01:17:26;;;;;;;1.50;0.88;;;17.50;85.00;;;;;;5052518;28;20521;-79
2023/06/14 01:19:57;;;;;;;2.15;1.40;;;17.50;85.20;;;;;;5032350;28;20041;-77
2023/06/14 01:22:27;;;;;;;2.95;0.93;;;17.60;85.50;;;;;;5042968;28;20491;-76
2023/06/14 01:24:55;;;;;;;4.47;1.08;;;17.40;85.50;;;;;;5071307;28;20048;-77
2023/06/14 01:27:23;;;;;;;5.03;0.90;;;17.40;85.70;;;;;;5067457;28;20086;-75
2023/06/14 01:29:56;;;;;;;2.97;0.65;;;16.70;85.60;;;;;;5077303;28;20051;-77
2023/06/14 01:32:24;;;;;;;2.60;0.77;;;17.50;86.20;;;;;;5062870;28;20057;-74
2023/06/14 01:34:50;;;;;;;2.15;0.82;;;17.30;86.20;;;;;;5035670;28;20057;-76
2023/06/14 01:37:17;;;;;;;2.85;0.98;;;17.20;86.50;;;;;;5079009;28;20262;-76
2023/06/14 01:39:43;;;;;;;4.15;1.10;;;17.20;86.70;;;;;;5081204;28;20522;-76
2023/06/14 01:42:10;;;;;;;2.75;0.85;;;18.10;87.60;;;;;;5073958;28;20033;-76
2023/06/14 01:44:37;;;;;;;3.13;1.10;;;17.20;87.10;;;;;;5076188;28;20105;-77
2023/06/14 01:47:03;;;;;;;3.25;1.00;;;17.10;87.20;;;;;;5078713;28;20114;-77
2023/06/14 01:49:33;;;;;;;2.08;0.70;;;17.10;87.40;;;;;;5078592;28;20116;-76
2023/06/14 01:51:58;;;;;;;3.35;1.27;;;16.00;87.00;;;;;;5066466;28;20648;-76
2023/06/14 01:54:25;;;;;;;3.67;0.90;;;17.00;87.60;;;;;;5073151;28;20086;-76
2023/06/14 01:56:51;;;;;;;2.05;0.90;;;17.30;88.10;;;;;;5070536;28;20041;-77
2023/06/14 01:59:17;;;;;;;2.30;1.05;;;17.00;88.10;;;;;;5072170;28;20554;-77
2023/06/14 02:01:42;;;;;;;3.25;0.63;;;16.90;88.40;;;;;;5075225;28;20056;-77
2023/06/14 02:04:08;;;;;;;2.88;0.88;;;16.90;88.70;;;;;;5068079;28;20037;-77
2023/06/14 02:06:34;;;;;;;2.33;1.08;;;16.80;88.90;;;;;;5047993;28;20032;-77
2023/06/14 02:09:02;;;;;;;3.83;1.00;;;16.80;88.90;;;;;;5080386;28;20040;-76
2023/06/14 02:11:27;;;;;;;2.80;1.00;;;18.30;89.90;;;;;;5068980;28;20048;-77
2023/06/14 02:13:54;;;;;;;4.97;1.00;;;16.80;89.20;;;;;;5060509;28;20059;-79
2023/06/14 02:16:21;;;;;;;2.45;1.10;;;16.70;89.60;;;;;;5090120;28;20067;-76
2023/06/14 02:18:48;;;;;;;2.83;0.98;;;16.70;89.60;;;;;;5077850;28;20119;-77
2023/06/14 02:21:14;;;;;;;3.00;1.17;;;16.70;89.70;;;;;;5071645;28;20045;-77
2023/06/14 02:23:40;;;;;;;1.98;0.80;;;16.90;90.00;;;;;;5070514;28;20043;-77
2023/06/14 02:26:06;;;;;;;3.60;1.17;;;16.60;90.10;;;;;;5069537;28;20584;-77
2023/06/14 02:28:31;;;;;;;3.13;1.00;;;16.60;90.20;;;;;;5079940;28;20154;-76
2023/06/14 02:30:57;;;;;;;3.22;1.13;;;16.50;90.30;;;;;;5078164;28;20044;-76
2023/06/14 02:33:23;;;;;;;3.30;1.08;;;16.60;90.40;;;;;;5079285;28;20488;-76
2023/06/14 02:35:48;;;;;;;2.53;1.00;;;16.50;90.40;;;;;;5054529;28;20105;-76
2023/06/14 02:38:14;;;;;;;1.63;0.98;;;16.50;90.50;;;;;;5076463;28;20089;-76
2023/06/14 02:40:42;;;;;;;5.05;1.35;;;16.50;90.60;;;;;;5055812;28;20098;-77
2023/06/14 02:43:08;;;;;;;4.03;1.00;;;16.50;90.60;;;;;;5071516;28;20037;-77
2023/06/14 02:45:34;;;;;;;1.98;0.93;;;16.50;90.60;;;;;;5080479;28;20136;-77
2023/06/14 02:48:00;;;;;;;9.68;1.58;;;16.50;90.80;;;;;;5058000;28;20563;-77
2023/06/14 02:50:28;;;;;;;2.95;1.13;;;17.10;91.10;;;;;;5073932;28;20032;-75
2023/06/14 02:52:55;;;;;;;3.60;1.23;;;16.70;91.10;;;;;;5057635;28;20048;-80
2023/06/14 02:55:21;;;;;;;3.58;1.27;;;16.30;91.00;;;;;;5078040;28;20127;-78
2023/06/14 02:57:48;;;;;;;1.55;1.20;;;17.10;91.20;;;;;;5066017;28;20159;-78
2023/06/14 03:00:14;;;;;;;2.38;1.27;;;16.20;91.20;;;;;;5077787;28;20080;-77
2023/06/14 03:02:39;;;;;;;4.50;1.20;;;16.20;91.30;;;;;;5079842;28;20870;-76
2023/06/14 03:05:08;;;;;;;7.20;1.17;;;16.20;91.20;;;;;;5077306;28;20080;-77
2023/06/14 03:07:34;;;;;;;1.25;0.98;;;16.20;91.30;;;;;;5071753;28;20554;-77
2023/06/14 03:10:00;;;;;;;2.38;1.17;;;16.60;91.80;;;;;;5073551;28;20036;-77
2023/06/14 03:12:26;;;;;;;6.38;1.38;;;16.20;91.50;;;;;;5079307;28;20123;-77
2023/06/14 03:14:53;;;;;;;3.75;1.15;;;16.80;91.80;;;;;;5077461;28;20036;-78
2023/06/14 03:17:19;;;;;;;1.85;1.27;;;16.10;91.70;;;;;;5069234;28;20079;-77
2023/06/14 03:19:45;;;;;;;3.42;1.50;;;16.10;91.80;;;;;;5080879;28;20083;-77
2023/06/14 03:22:11;;;;;;;4.82;1.45;;;16.10;91.80;;;;;;5051785;28;20059;-77
2023/06/14 03:24:37;;;;;;;1.98;0.88;;;16.00;91.80;;;;;;5076680;28;20055;-76
2023/06/14 03:27:03;;;;;;;2.30;1.02;;;17.20;92.20;;;;;;5071552;28;20036;-76
2023/06/14 03:29:29;;;;;;;8.48;1.30;;;16.00;92.00;;;;;;5077370;28;20127;-77
2023/06/14 03:32:00;;;;;;;4.47;1.55;;;16.40;92.10;;;;;;5078564;28;20123;-78
2023/06/14 03:34:26;;;;;;;1.90;1.23;;;16.00;91.90;;;;;;5080590;28;20049;-78
2023/06/14 03:36:52;;;;;;;4.45;1.50;;;16.00;92.00;;;;;;5075728;28;20044;-76
2023/06/14 03:39:19;;;;;;;9.93;1.60;;;16.00;92.00;;;;;;5079345;28;20458;-76
2023/06/14 03:41:48;;;;;;;7.53;1.30;;;15.80;92.10;;;;;;5082906;28;20060;-78
2023/06/14 03:44:17;;;;;;;2.58;1.60;;;15.90;92.30;;;;;;5056913;28;20564;-79
2023/06/14 03:46:43;;;;;;;3.30;1.48;;;15.90;92.40;;;;;;5075598;28;20047;-80
2023/06/14 03:49:09;;;;;;;6.38;1.70;;;15.90;92.40;;;;;;5058654;28;20049;-79
2023/06/14 03:51:35;;;;;;;3.30;1.67;;;15.90;92.50;;;;;;5069568;28;20040;-80
2023/06/14 03:54:01;;;;;;;5.72;1.48;;;16.30;92.70;;;;;;5082091;28;20110;-78
2023/06/14 03:56:27;;;;;;;5.15;1.40;;;15.80;92.70;;;;;;5076357;28;20439;-79
2023/06/14 03:58:53;;;;;;;3.63;1.55;;;15.80;92.70;;;;;;5064417;28;20036;-78
2023/06/14 04:01:18;;;;;;;2.80;1.17;;;15.80;92.80;;;;;;5070327;28;20045;-79
2023/06/14 04:03:44;;;;;;;3.67;1.42;;;16.40;93.00;;;;;;5049648;28;20484;-79
2023/06/14 04:06:10;;;;;;;4.30;1.48;;;15.80;93.00;;;;;;5071743;28;20081;-78
2023/06/14 04:08:35;;;;;;;6.90;1.23;;;16.60;93.20;;;;;;5076565;28;20044;-77
2023/06/14 04:11:01;;;;;;;2.08;1.30;;;15.90;93.00;;;;;;5065821;28;20048;-79
2023/06/14 04:13:27;;;;;;;9.55;1.90;;;16.10;93.10;;;;;;5075734;28;20052;-78
2023/06/14 04:15:53;;;;;;;2.38;1.65;;;15.50;92.90;;;;;;5077917;28;20048;-78
2023/06/14 04:18:20;;;;;;;5.65;2.10;;;15.80;93.10;;;;;;5079861;28;20512;-76
2023/06/14 04:20:46;;;;;;;4.35;1.52;;;15.70;93.20;;;;;;5072088;28;20036;-76
2023/06/14 04:23:17;;;;;;;3.30;1.73;;;17.20;93.70;;;;;;5048836;28;20519;-79
2023/06/14 04:25:45;;;;;;;3.08;1.92;;;15.70;93.40;;;;;;5074672;28;20048;-79
2023/06/14 04:28:12;;;;;;;2.08;1.40;;;15.30;93.30;;;;;;5069014;28;20052;-80
2023/06/14 04:30:38;;;;;;;3.55;1.20;;;15.70;93.50;;;;;;5069275;28;20071;-80
2023/06/14 04:33:05;;;;;;;5.57;1.70;;;15.90;93.50;;;;;;5060906;28;20057;-77
2023/06/14 04:35:32;;;;;;;7.72;2.03;;;15.70;93.60;;;;;;5082055;28;20051;-78
2023/06/14 04:37:59;;;;;;;2.63;1.75;;;17.20;94.40;;;;;;5068646;28;20165;-78
2023/06/14 04:40:24;;;;;;;3.60;2.42;;;17.10;94.20;;;;;;5081759;28;20052;-78
2023/06/14 04:42:50;;;;;;;8.52;2.15;;;15.60;94.10;;;;;;5079422;28;20103;-77
2023/06/14 04:45:16;;;;;;;5.13;1.95;;;15.60;94.10;;;;;;5077258;28;20053;-77
2023/06/14 04:47:43;;;;;;;4.35;2.00;;;15.70;94.10;;;;;;5075637;28;20044;-78
2023/06/14 04:50:10;;;;;;;2.05;1.80;;;16.00;94.30;;;;;;5068788;28;20173;-77
2023/06/14 04:52:37;;;;;;;4.25;1.92;;;15.70;94.30;;;;;;5070037;28;20241;-78
2023/06/14 04:55:03;;;;;;;2.30;1.58;;;15.60;94.50;;;;;;5083754;28;20120;-78
2023/06/14 04:57:29;;;;;;;6.03;2.50;;;15.60;94.50;;;;;;5083061;28;20040;-78
2023/06/14 04:59:55;;;;;;;7.53;2.33;;;15.60;94.70;;;;;;5083555;28;20052;-77
2023/06/14 05:02:25;;;;;;;6.35;1.92;;;15.50;94.90;;;;;;5078407;28;20045;-78
2023/06/14 05:04:51;;;;;;;2.20;2.00;;;15.60;94.90;;;;;;5083073;28;20430;-76
2023/06/14 05:07:16;;;;;;;9.23;3.20;;;15.50;95.00;;;;;;5076858;28;20044;-77
2023/06/14 05:09:42;;;;;;;5.10;1.63;;;15.60;94.90;;;;;;5073482;28;20047;-76
2023/06/14 05:12:08;;;;;;;3.03;2.00;;;15.60;94.80;;;;;;5071334;28;20033;-79
2023/06/14 05:14:34;;;;;;;4.70;2.33;;;15.60;95.10;;;;;;5053495;28;20404;-76
2023/06/14 05:17:00;;;;;;;6.35;3.42;;;15.60;95.10;;;;;;5064247;28;21777;-77
2023/06/14 05:19:27;;;;;;;4.28;2.40;;;15.60;95.20;;;;;;5079847;28;20133;-79
2023/06/14 05:21:53;;;;;;;5.20;2.47;;;16.60;95.40;;;;;;5086689;28;20040;-79
2023/06/14 05:24:19;;;;;;;4.50;2.05;;;15.70;95.20;;;;;;5069392;28;20036;-80
2023/06/14 05:26:45;;;;;;;4.38;2.08;;;15.70;95.30;;;;;;5081215;28;20106;-78
2023/06/14 05:29:13;;;;;;;6.20;1.95;;;17.00;95.80;;;;;;5078876;28;20044;-79
2023/06/14 05:31:38;;;;;;;4.97;1.98;;;16.40;95.60;;;;;;5063768;28;20044;-77
2023/06/14 05:34:04;;;;;;;4.03;2.00;;;15.70;95.40;;;;;;5063759;28;20043;-77
2023/06/14 05:36:30;;;;;;;2.10;1.90;;;15.80;95.40;;;;;;5076911;28;20430;-77
2023/06/14 05:38:59;;;;;;;5.15;1.73;;;15.80;95.50;;;;;;5065591;28;20132;-77
2023/06/14 05:41:27;;;;;;;4.75;1.75;;;15.80;95.60;;;;;;5070933;28;20124;-78
2023/06/14 05:43:54;;;;;;;10.20;2.30;;;16.60;95.80;;;;;;5070549;28;20036;-78
2023/06/14 05:46:24;;;;;;;8.40;2.53;;;15.90;95.50;;;;;;5075188;28;20067;-79
2023/06/14 05:48:51;;;;;;;9.60;2.83;;;15.90;95.50;;;;;;5065480;28;20043;-81
2023/06/14 05:51:19;;;;;;;7.75;2.28;;;16.00;95.50;;;;;;5069978;28;20098;-80
2023/06/14 05:53:48;;;;;;;9.15;2.60;;;16.10;95.50;;;;;;5078772;28;20056;-77
2023/06/14 05:56:15;;;;;;;4.05;2.35;;;16.10;95.40;;;;;;5056376;28;20354;-79
2023/06/14 05:58:41;;;;;;;7.70;2.28;;;16.10;95.40;;;;;;5076776;28;20136;-74
2023/06/14 06:01:07;;;;;;;7.88;2.58;;;16.30;95.50;;;;;;5076968;28;20048;-75
2023/06/14 06:03:33;;;;;;;4.90;2.58;;;16.20;95.50;;;;;;5063734;28;20082;-75
2023/06/14 06:05:58;;;;;;;5.22;2.30;;;16.30;95.40;;;;;;5042498;28;20036;-74
2023/06/14 06:08:24;;;;;;;10.48;2.33;;;16.30;95.40;;;;;;5081459;28;20032;-76
2023/06/14 06:10:50;;;;;;;8.55;2.42;;;16.40;95.30;;;;;;5078429;28;20451;-78
2023/06/14 06:13:16;;;;;;;4.30;1.85;;;16.40;95.30;;;;;;5076500;28;20047;-85
2023/06/14 06:15:41;;;;;;;3.28;1.90;;;16.50;95.10;;;;;;5058241;28;20571;-81
2023/06/14 06:18:07;;;;;;;6.13;2.20;;;16.60;95.10;;;;;;5073780;28;20086;-80
2023/06/14 06:20:33;;;;;;;7.05;2.20;;;16.60;95.00;;;;;;5054151;28;20045;-79
2023/06/14 06:22:59;;;;;;;7.50;2.03;;;16.70;95.00;;;;;;5071396;28;20071;-79
2023/06/14 06:25:28;;;;;;;6.93;2.00;;;16.80;94.90;;;;;;5073360;28;20047;-79
2023/06/14 06:27:56;;;;;;;9.15;2.65;;;16.80;94.90;;;;;;5066209;28;20031;-79
2023/06/14 06:30:22;;;;;;;7.53;2.33;;;16.90;94.80;;;;;;5072140;28;20040;-79
2023/06/14 06:32:47;;;;;;;3.95;1.85;;;17.00;94.60;;;;;;5072870;28;20044;-80
2023/06/14 06:35:13;;;;;;;5.47;2.03;;;18.30;94.50;;;;;;5072754;28;20037;-81
2023/06/14 06:37:40;;;;;;;3.65;1.60;;;17.00;94.00;;;;;;5068040;28;20888;-82
2023/06/14 06:40:07;;;;;;;6.95;1.55;;;17.10;93.80;;;;;;5081197;28;20044;-82
2023/06/14 06:42:33;;;;;;;10.85;1.88;;;17.10;93.60;;;;;;5070633;28;20055;-79
2023/06/14 06:44:59;;;;;;;4.68;2.72;;;17.20;93.70;;;;;;5041910;28;20045;-80
2023/06/14 06:47:25;;;;;;;10.30;2.03;;;17.20;93.70;;;;;;5063394;28;20557;-79
2023/06/14 06:49:50;;;;;;;8.02;1.70;;;17.30;93.70;;;;;;5066045;28;20111;-83
2023/06/14 06:52:16;;;;;;;10.35;2.13;;;18.40;93.90;;;;;;5072834;28;20078;-79
2023/06/14 06:54:42;;;;;;;5.50;1.77;;;17.40;93.60;;;;;;5078841;28;20094;-78
2023/06/14 06:57:10;;;;;;;4.72;1.92;;;16.30;93.40;;;;;;5081931;28;20484;-80
2023/06/14 06:59:36;;;;;;;5.13;2.13;;;19.00;93.90;;;;;;5072283;28;20056;-81
2023/06/14 07:02:02;;;;;;;8.55;1.60;;;17.60;93.40;;;;;;5085581;28;20040;-82
2023/06/14 07:04:28;;;;;;;5.55;1.52;;;17.70;93.20;;;;;;5079229;28;20028;-80
2023/06/14 07:06:54;;;;;;;6.43;2.22;;;17.70;93.00;;;;;;5069954;28;20040;-78
2023/06/14 07:09:20;;;;;;;3.53;1.92;;;17.80;93.00;;;;;;5064234;28;20057;-79
2023/06/14 07:11:47;;;;;;;2.28;1.60;;;17.90;93.00;;;;;;5090064;28;20073;-81
2023/06/14 07:14:13;;;;;;;6.63;1.90;;;17.90;92.70;;;;;;5086214;28;20040;-78
2023/06/14 07:16:39;;;;;;;4.63;1.60;;;18.00;92.80;;;;;;5080604;28;20105;-80
2023/06/14 07:19:05;;;;;;;3.25;1.63;;;18.10;92.80;;;;;;5078816;28;20037;-81
2023/06/14 07:21:31;;;;;;;1.60;1.23;;;18.10;92.70;;;;;;5076764;28;20044;-80
2023/06/14 07:23:56;;;;;;;2.25;1.58;;;18.20;92.60;;;;;;5071547;28;20044;-79
2023/06/14 07:26:22;;;;;;;3.35;1.55;;;18.60;92.40;;;;;;5074449;28;20059;-79
2023/06/14 07:28:48;;;;;;;6.15;1.92;;;18.40;92.20;;;;;;5080665;28;20048;-78
2023/06/14 07:31:19;;;;;;;1.60;1.23;;;18.40;92.10;;;;;;5077712;28;20039;-79
2023/06/14 07:33:45;;;;;;;3.33;1.92;;;18.60;92.10;;;;;;5061216;28;20131;-85
2023/06/14 07:36:10;;;;;;;3.00;1.42;;;18.60;91.80;;;;;;5042256;28;20059;-86
2023/06/14 07:38:36;;;;;;;3.65;1.55;;;18.70;91.80;;;;;;5068141;28;20052;-89
2023/06/14 07:41:02;;;;;;;4.50;1.92;;;18.90;91.80;;;;;;5069129;28;20510;-83
2023/06/14 07:43:28;;;;;;;4.07;1.50;;;18.80;91.70;;;;;;5050474;28;20048;-80
2023/06/14 07:45:54;;;;;;;2.90;1.52;;;18.90;91.60;;;;;;5081058;28;20559;-83
2023/06/14 07:48:20;;;;;;;6.93;1.60;;;19.00;91.40;;;;;;5049849;28;20090;-82
2023/06/14 07:50:46;;;;;;;4.22;1.98;;;19.00;91.40;;;;;;5052884;28;20576;-79
2023/06/14 07:53:12;;;;;;;3.28;1.88;;;19.10;91.30;;;;;;5070618;28;20035;-80
2023/06/14 07:55:38;;;;;;;4.25;1.55;;;18.60;91.00;;;;;;5079329;28;20040;-80
2023/06/14 07:58:04;;;;;;;5.00;2.10;;;19.20;90.70;;;;;;5075426;28;20056;-81
2023/06/14 08:00:30;;;;;;;5.40;1.63;;;19.30;90.50;;;;;;5076096;28;20106;-79
2023/06/14 08:02:59;;;;;;;2.60;1.52;;;19.50;90.50;;;;;;5079929;28;20040;-80
2023/06/14 08:05:28;;;;;;;8.00;1.65;;;19.50;90.50;;;;;;5079054;28;20119;-79
2023/06/14 08:07:54;;;;;;;3.75;1.38;;;19.70;90.50;;;;;;5078021;28;20115;-78
2023/06/14 08:10:21;;;;;;;6.85;2.08;;;19.60;90.50;;;;;;5074777;28;20135;-80
2023/06/14 08:12:49;;;;;;;5.00;1.52;;;19.50;90.20;;;;;;5078322;28;20047;-79
2023/06/14 08:15:15;;;;;;;8.02;1.92;;;19.70;90.00;;;;;;5066963;28;20040;-79
2023/06/14 08:17:43;;;;;;;4.28;1.85;;;19.80;90.00;;;;;;5067984;28;20037;-78
2023/06/14 08:20:10;;;;;;;5.07;1.95;;;19.90;89.90;;;;;;5079322;28;20044;-79
2023/06/14 08:22:36;;;;;;;5.47;1.90;;;19.80;89.90;;;;;;5080286;28;20119;-80
2023/06/14 08:25:02;;;;;;;6.47;1.55;;;19.90;89.90;;;;;;5076473;28;20131;-80
2023/06/14 08:27:27;;;;;;;3.50;1.75;;;19.90;90.00;;;;;;5075840;28;20466;-80
2023/06/14 08:29:53;;;;;;;5.45;1.58;;;20.00;90.00;;;;;;5068347;28;20046;-80
2023/06/14 08:32:19;;;;;;;4.38;1.98;;;20.00;90.00;;;;;;5076841;28;20086;-80
2023/06/14 08:34:45;;;;;;;5.97;1.60;;;20.00;89.90;;;;;;5050378;28;20033;-79
2023/06/14 08:37:10;;;;;;;3.53;1.40;;;20.10;89.60;;;;;;5079966;28;20042;-80
2023/06/14 08:39:36;;;;;;;2.53;1.55;;;20.20;89.40;;;;;;5070345;28;20123;-79
2023/06/14 08:42:03;;;;;;;8.32;1.40;;;20.20;89.00;;;;;;5066801;28;20419;-81
2023/06/14 08:44:30;;;;;;;6.00;1.20;;;20.30;88.60;;;;;;5078582;28;20408;-79
2023/06/14 08:46:57;;;;;;;3.90;1.73;;;20.40;88.30;;;;;;5073039;28;20044;-79
2023/06/14 08:49:24;;;;;;;2.17;1.33;;;20.60;87.70;;;;;;5090799;28;20406;-79
2023/06/14 08:52:00;;;;;;;1.42;1.33;;;20.50;87.50;;;;;;5087267;28;20037;-78
2023/06/14 08:54:35;;;;;;;2.17;1.00;;;21.10;87.90;;;;;;5082905;28;20036;-79
2023/06/14 08:57:02;;;;;;;5.68;1.65;;;20.60;87.60;;;;;;5081272;28;20080;-79
2023/06/14 08:59:28;;;;;;;6.22;1.70;;;21.50;87.50;;;;;;5079511;28;20044;-78
2023/06/14 09:01:54;;;;;;;2.28;1.40;;;20.70;87.10;;;;;;5081072;28;20048;-80
2023/06/14 09:04:29;;;;;;;2.60;1.52;;;20.80;86.50;;;;;;5083167;28;20036;-79
2023/06/14 09:06:55;;;;;;;3.92;1.50;;;21.00;86.00;;;;;;5071982;28;20052;-80
2023/06/14 09:09:22;;;;;;;3.47;1.63;;;20.80;86.40;;;;;;5078937;28;20064;-79
2023/06/14 09:11:50;;;;;;;1.58;1.48;;;21.10;86.00;;;;;;5080715;28;20485;-79
2023/06/14 09:14:16;;;;;;;4.18;1.73;;;20.90;85.90;;;;;;5082944;28;20139;-81
2023/06/14 09:16:41;;;;;;;3.60;1.42;;;21.10;85.50;;;;;;5072525;28;20136;-81
2023/06/14 09:19:07;;;;;;;6.28;1.50;;;22.00;85.90;;;;;;5079529;28;20128;-79
2023/06/14 09:21:37;;;;;;;2.70;1.52;;;21.10;85.30;;;;;;5079514;28;20536;-80
2023/06/14 09:24:04;;;;;;;3.33;1.50;;;21.30;85.70;;;;;;5071590;28;20048;-80
2023/06/14 09:26:30;;;;;;;5.28;1.88;;;21.20;85.50;;;;;;5082798;28;20036;-80
2023/06/14 09:28:55;;;;;;;1.77;1.30;;;21.30;85.30;;;;;;5081204;28;20052;-79
2023/06/14 09:31:22;;;;;;;1.60;1.40;;;21.50;84.80;;;;;;5078820;28;20099;-80
2023/06/14 09:33:51;;;;;;;9.45;2.00;;;21.40;85.00;;;;;;5079934;28;20114;-80
2023/06/14 09:36:26;;;;;;;7.70;1.83;;;21.40;85.50;;;;;;5072162;28;20462;-79
2023/06/14 09:39:05;;;;;;;5.38;1.60;;;21.50;85.40;;;;;;5072445;28;20054;-81
2023/06/14 09:41:39;;;;;;;2.72;1.25;;;21.50;84.30;;;;;;5077254;28;20032;-80
2023/06/14 09:44:08;;;;;;;;;;;21.60;84.50;;;;;;5079979;28;20114;-81
2023/06/14 09:46:35;;;;;;;5.97;1.17;;;21.60;83.80;;;;;;5069310;28;20276;-80
2023/06/14 09:49:02;;;;;;;5.35;1.50;;;21.60;84.70;;;;;;5071768;28;20102;-80
2023/06/14 09:51:31;;;;;;;2.15;1.27;;;22.00;84.70;;;;;;5081531;28;20046;-80
2023/06/14 09:54:04;;;;;;;1.88;1.30;;;21.70;84.10;;;;;;5071545;28;20123;-81
2023/06/14 09:56:34;;;;;;;3.08;1.40;;;21.70;83.40;;;;;;5077878;28;20093;-80
2023/06/14 09:59:01;;;;;;;4.35;1.33;;;21.80;83.10;;;;;;5080054;28;20041;-82
2023/06/14 10:01:30;;;;;;;2.90;1.33;;;21.80;83.10;;;;;;5082036;28;20054;-80
2023/06/14 10:04:03;;;;;;;3.50;1.75;;;22.00;83.10;;;;;;5071552;28;20105;-79
2023/06/14 10:06:29;;;;;;;4.13;1.52;;;22.00;82.70;;;;;;5052056;28;20036;-79
2023/06/14 10:08:59;;;;;;;3.83;1.48;;;22.00;83.10;;;;;;5079860;28;20102;-79
2023/06/14 10:11:28;;;;;;;2.88;1.63;;;22.00;83.00;;;;;;5081419;28;20032;-79
2023/06/14 10:13:56;;;;;;;4.80;1.65;;;22.10;83.30;;;;;;5082064;28;20063;-79
2023/06/14 10:16:30;;;;;;;1.90;1.40;;;22.20;83.60;;;;;;5069767;28;20036;-79
2023/06/14 10:19:11;;;;;;;3.03;1.58;;;22.20;83.60;;;;;;5079608;28;20373;-79
2023/06/14 10:22:00;;;;;;;2.33;1.35;;;22.30;83.60;;;;;;5082966;28;20050;-80
2023/06/14 10:24:48;;;;;;;5.38;1.40;;;22.30;82.80;;;;;;5076537;28;20047;-79
2023/06/14 10:27:16;;;;;;;1.90;1.58;;;22.40;82.80;;;;;;5089930;28;20062;-79
2023/06/14 10:29:57;;;;;;;7.43;1.30;;;22.40;82.70;;;;;;5082947;28;20089;-80
2023/06/14 10:32:24;;;;;;;4.60;1.58;;;22.50;82.30;;;;;;5069746;28;20036;-79
2023/06/14 10:35:16;;;;;;;3.70;1.27;;;22.30;81.80;;;;;;5078227;28;20037;-79
2023/06/14 10:37:42;;;;;;;4.50;1.35;;;22.60;81.60;;;;;;5073189;28;20040;-80
2023/06/14 10:40:08;;;;;;;7.47;1.90;;;22.50;81.80;;;;;;5069271;28;20051;-80
2023/06/14 10:42:34;;;;;;;5.45;1.20;;;22.60;82.00;;;;;;5084294;28;20048;-80
2023/06/14 10:45:00;;;;;;;2.95;0.85;;;22.80;83.10;;;;;;5069066;28;20044;-81
2023/06/14 10:47:28;;;;;;;4.75;1.65;;;22.70;82.00;;;;;;5070735;28;20051;-82
2023/06/14 10:50:05;;;;;;;6.75;1.30;;;22.70;81.50;;;;;;5071203;28;20488;-81
2023/06/14 10:52:35;;;;;;;3.95;1.38;;;22.80;81.40;;;;;;5071039;28;20510;-82
2023/06/14 10:55:14;;;;;;;7.55;1.65;;;22.80;81.40;;;;;;5068445;28;20041;-81
2023/06/14 10:57:51;;;;;;;7.10;1.38;;;22.90;81.40;;;;;;5071192;28;20052;-82
2023/06/14 11:00:22;;;;;;;2.53;1.00;;;23.00;80.40;;;;;;5068094;28;20096;-82
2023/06/14 11:03:03;;;;;;;2.72;1.30;;;23.10;80.30;;;;;;5078125;28;20123;-81
2023/06/14 11:05:29;;;;;;;4.32;1.48;;;23.10;80.10;;;;;;5053054;28;20045;-81
2023/06/14 11:08:23;;;;;;;3.83;1.33;;;23.20;80.90;;;;;;5077286;28;20059;-80
2023/06/14 11:10:50;;;;;;;2.38;1.42;;;23.30;80.50;;;;;;5073083;28;20084;-81
2023/06/14 11:13:16;;;;;;;3.20;1.20;;;23.40;80.10;;;;;;5080236;28;20040;-80
2023/06/14 11:15:49;;;;;;;5.15;1.30;;;23.20;79.20;;;;;;5080268;28;20445;-82
2023/06/14 11:18:16;;;;;;;4.65;1.23;;;24.20;78.40;;;;;;5068981;28;20088;-80
2023/06/14 11:20:42;;;;;;;3.47;1.67;;;23.60;78.80;;;;;;5050967;28;20067;-82
2023/06/14 11:23:08;;;;;;;2.97;1.40;;;23.60;78.90;;;;;;5051309;28;20511;-80
2023/06/14 11:25:33;;;;;;;2.60;1.35;;;23.60;78.90;;;;;;5080518;28;20063;-80
2023/06/14 11:27:59;;;;;;;7.50;1.42;;;23.70;79.40;;;;;;5081107;28;20440;-80
2023/06/14 11:30:25;;;;;;;1.95;1.52;;;23.90;79.60;;;;;;5068250;28;20045;-80
2023/06/14 11:32:53;;;;;;;2.40;1.33;;;23.90;78.80;;;;;;5077535;28;20132;-81
2023/06/14 11:35:23;;;;;;;3.90;1.20;;;24.00;79.20;;;;;;5077186;28;20037;-80
2023/06/14 11:37:53;;;;;;;7.43;1.20;;;24.10;79.40;;;;;;5076872;28;20496;-82
2023/06/14 11:40:19;;;;;;;2.60;0.85;;;24.20;78.50;;;;;;5079893;28;20106;-81
2023/06/14 11:42:44;;;;;;;2.78;0.77;;;24.30;78.00;;;;;;5070835;28;20097;-80
2023/06/14 11:45:11;;;;;;;2.83;1.17;;;24.50;77.70;;;;;;5079741;28;20090;-83
2023/06/14 11:47:39;;;;;;;2.08;0.82;;;24.60;77.70;;;;;;5051235;28;20048;-80
2023/06/14 11:50:10;;;;;;;2.83;0.98;;;24.70;76.80;;;;;;5077400;28;20052;-79
2023/06/14 11:52:37;;;;;;;2.15;0.52;;;24.70;76.80;;;;;;5080865;28;20102;-82
2023/06/14 11:55:05;;;;;;;3.70;1.10;;;24.60;76.10;;;;;;5081434;28;20036;-82
2023/06/14 11:57:35;;;;;;;2.70;1.00;;;24.70;76.30;;;;;;5077173;28;20036;-79
2023/06/14 12:00:06;;;;;;;2.60;0.88;;;25.00;76.00;;;;;;5074084;28;20454;-80
2023/06/14 12:02:32;;;;;;;4.85;0.82;;;25.00;76.00;;;;;;5078017;28;20064;-80
2023/06/14 12:05:06;;;;;;;1.45;0.82;;;25.00;76.00;;;;;;5078820;28;20459;-80
2023/06/14 12:07:32;;;;;;;0.90;0.63;;;25.00;75.10;;;;;;5067269;28;20115;-81
2023/06/14 12:09:57;;;;;;;1.55;0.73;;;25.10;75.00;;;;;;5065979;28;20108;-81
2023/06/14 12:12:29;;;;;;;3.58;1.35;;;25.20;75.20;;;;;;5077352;28;20047;-81
2023/06/14 12:14:56;;;;;;;6.40;1.00;;;25.30;74.60;;;;;;5074605;28;20101;-83
2023/06/14 12:17:22;;;;;;;3.33;0.75;;;25.30;74.40;;;;;;5083423;28;20487;-82
2023/06/14 12:19:49;;;;;;;2.85;0.60;;;25.90;74.80;;;;;;5077341;28;20064;-82
2023/06/14 12:22:16;;;;;;;1.42;0.70;;;25.60;74.10;;;;;;5081903;28;20484;-80
2023/06/14 12:24:46;;;;;;;2.03;1.00;;;25.60;73.70;;;;;;5084097;28;20082;-83
2023/06/14 12:27:15;;;;;;;2.05;0.80;;;25.70;73.10;;;;;;5083109;28;20113;-83
2023/06/14 12:29:44;;;;;;;2.33;0.80;;;25.80;74.00;;;;;;5082331;28;20076;-82
2023/06/14 12:32:10;;;;;;;3.15;0.70;;;25.80;74.10;;;;;;5081553;28;20355;-80
2023/06/14 12:34:36;;;;;;;3.50;0.90;;;25.70;73.50;;;;;;5085358;28;20441;-82
2023/06/14 12:37:03;;;;;;;3.70;0.85;;;25.60;72.90;;;;;;5084141;28;20579;-83
2023/06/14 12:39:31;;;;;;;1.50;0.80;;;25.60;73.20;;;;;;5081870;28;20433;-82
2023/06/14 12:41:57;;;;;;;6.60;0.73;;;25.70;73.90;;;;;;5089678;28;20052;-80
2023/06/14 12:44:23;;;;;;;2.25;0.70;;;25.90;73.60;;;;;;5085354;28;20036;-80
2023/06/14 12:46:51;;;;;;;4.68;0.88;;;26.00;73.40;;;;;;5081518;28;20511;-79
2023/06/14 12:49:17;;;;;;;2.28;0.85;;;26.10;73.10;;;;;;5083135;28;20105;-78